sensor_id;sensor_type;location;lat;lon;timestamp;pressure;altitude;pressure_sealevel;temperature;humidity
6500;BME280;3283;52.330;9.772;2022-09-17T00:00:37;99907.13;;;10.96;100.00
6500;BME280;3283;52.330;9.772;2022-09-17T00:03:03;99899.38;;;10.90;100.00
6500;BME280;3283;52.330;9.772;2022-09-17T00:05:29;99903.63;;;10.96;100.00
6500;BME280;3283;52.330;9.772;2022-09-17T00:07:55;99914.06;;;10.99;100.00
6500;BME280;3283;52.330;9.772;2022-09-17T00:10:20;99910.50;;;11.02;100.00
6500;BME280;3283;52.330;9.772;2022-09-17T00:12:47;99907.88;;;11.02;100.00
6500;BME280;3283;52.330;9.772;2022-09-17T00:15:13;99912.28;;;11.01;100.00
6500;BME280;3283;52.330;9.772;2022-09-17T00:17:39;99917.53;;;11.01;100.00
6500;BME280;3283;52.330;9.772;2022-09-17T00:20:05;99919.22;;;11.04;100.00
6500;BME280;3283;52.330;9.772;2022-09-17T00:22:34;99925.28;;;11.06;100.00
6500;BME280;3283;52.330;9.772;2022-09-17T00:25:00;99919.31;;;10.99;100.00
6500;BME280;3283;52.330;9.772;2022-09-17T00:27:25;99930.56;;;11.06;100.00
6500;BME280;3283;52.330;9.772;2022-09-17T00:29:51;99922.88;;;10.98;100.00
6500;BME280;3283;52.330;9.772;2022-09-17T00:32:16;99928.13;;;10.98;100.00
6500;BME280;3283;52.330;9.772;2022-09-17T00:34:42;99936.81;;;11.02;100.00
6500;BME280;3283;52.330;9.772;2022-09-17T00:37:08;99929.84;;;11.00;100.00
6500;BME280;3283;52.330;9.772;2022-09-17T00:39:33;99923.97;;;10.89;100.00
6500;BME280;3283;52.330;9.772;2022-09-17T00:41:59;99928.06;;;11.01;100.00
6500;BME280;3283;52.330;9.772;2022-09-17T00:47:41;99935.22;;;10.96;100.00
6500;BME280;3283;52.330;9.772;2022-09-17T00:50:15;99935.25;;;10.94;100.00
6500;BME280;3283;52.330;9.772;2022-09-17T00:52:50;99925.78;;;10.87;100.00
6500;BME280;3283;52.330;9.772;2022-09-17T00:55:24;99930.28;;;10.82;100.00
6500;BME280;3283;52.330;9.772;2022-09-17T00:57:53;99946.84;;;10.87;100.00
6500;BME280;3283;52.330;9.772;2022-09-17T01:00:20;99926.00;;;10.78;100.00
6500;BME280;3283;52.330;9.772;2022-09-17T01:02:47;99915.69;;;10.69;100.00
6500;BME280;3283;52.330;9.772;2022-09-17T01:05:13;99941.69;;;10.83;100.00
6500;BME280;3283;52.330;9.772;2022-09-17T01:08:04;99941.72;;;10.81;100.00
6500;BME280;3283;52.330;9.772;2022-09-17T01:10:56;99946.03;;;10.84;100.00
6500;BME280;3283;52.330;9.772;2022-09-17T01:13:40;99926.09;;;10.75;100.00
6500;BME280;3283;52.330;9.772;2022-09-17T01:16:47;99943.53;;;10.79;100.00
6500;BME280;3283;52.330;9.772;2022-09-17T01:25:20;99940.88;;;10.81;100.00
6500;BME280;3283;52.330;9.772;2022-09-17T01:36:36;99946.94;;;10.83;100.00
6500;BME280;3283;52.330;9.772;2022-09-17T01:41:52;99935.13;;;10.65;100.00
6500;BME280;3283;52.330;9.772;2022-09-17T01:47:22;99948.81;;;10.79;100.00
6500;BME280;3283;52.330;9.772;2022-09-17T01:49:52;99951.34;;;10.82;100.00
6500;BME280;3283;52.330;9.772;2022-09-17T01:52:19;99960.97;;;10.83;100.00
6500;BME280;3283;52.330;9.772;2022-09-17T01:54:46;99963.59;;;10.83;100.00
6500;BME280;3283;52.330;9.772;2022-09-17T01:57:20;99959.38;;;10.76;100.00
6500;BME280;3283;52.330;9.772;2022-09-17T01:59:51;99976.81;;;10.82;100.00
6500;BME280;3283;52.330;9.772;2022-09-17T02:02:30;99972.53;;;10.76;100.00
6500;BME280;3283;52.330;9.772;2022-09-17T02:05:08;99977.00;;;10.74;100.00
6500;BME280;3283;52.330;9.772;2022-09-17T02:07:40;99954.31;;;10.68;100.00
6500;BME280;3283;52.330;9.772;2022-09-17T02:10:12;99969.97;;;10.75;100.00
6500;BME280;3283;52.330;9.772;2022-09-17T02:12:43;99962.94;;;10.75;100.00
6500;BME280;3283;52.330;9.772;2022-09-17T02:15:19;99962.06;;;10.75;100.00
6500;BME280;3283;52.330;9.772;2022-09-17T02:18:06;99963.88;;;10.72;100.00
6500;BME280;3283;52.330;9.772;2022-09-17T02:20:40;99970.00;;;10.73;100.00
6500;BME280;3283;52.330;9.772;2022-09-17T02:23:21;99971.72;;;10.74;100.00
6500;BME280;3283;52.330;9.772;2022-09-17T02:26:01;99969.97;;;10.75;100.00
6500;BME280;3283;52.330;9.772;2022-09-17T02:28:47;99975.13;;;10.79;100.00
6500;BME280;3283;52.330;9.772;2022-09-17T02:31:15;99978.56;;;10.81;100.00
6500;BME280;3283;52.330;9.772;2022-09-17T02:33:43;99975.03;;;10.82;100.00
6500;BME280;3283;52.330;9.772;2022-09-17T02:36:10;99981.16;;;10.83;100.00
6500;BME280;3283;52.330;9.772;2022-09-17T02:38:37;99992.66;;;10.80;100.00
6500;BME280;3283;52.330;9.772;2022-09-17T02:41:15;99989.09;;;10.81;100.00
6500;BME280;3283;52.330;9.772;2022-09-17T02:49:33;99996.19;;;10.79;100.00
6500;BME280;3283;52.330;9.772;2022-09-17T02:55:26;100002.50;;;10.72;100.00
6500;BME280;3283;52.330;9.772;2022-09-17T02:58:17;99996.31;;;10.73;100.00
6500;BME280;3283;52.330;9.772;2022-09-17T03:00:44;99999.78;;;10.75;100.00
6500;BME280;3283;52.330;9.772;2022-09-17T03:06:08;99992.19;;;10.61;100.00
6500;BME280;3283;52.330;9.772;2022-09-17T03:08:39;99989.84;;;10.49;100.00
6500;BME280;3283;52.330;9.772;2022-09-17T03:11:06;100001.94;;;10.58;100.00
6500;BME280;3283;52.330;9.772;2022-09-17T03:13:33;99996.78;;;10.53;100.00
6500;BME280;3283;52.330;9.772;2022-09-17T03:16:01;99981.31;;;10.39;100.00
6500;BME280;3283;52.330;9.772;2022-09-17T03:18:27;99997.00;;;10.44;100.00
6500;BME280;3283;52.330;9.772;2022-09-17T03:20:52;99996.25;;;10.37;100.00
6500;BME280;3283;52.330;9.772;2022-09-17T03:23:18;100001.56;;;10.34;100.00
6500;BME280;3283;52.330;9.772;2022-09-17T03:25:45;99999.06;;;10.30;100.00
6500;BME280;3283;52.330;9.772;2022-09-17T03:28:10;100007.91;;;10.26;100.00
6500;BME280;3283;52.330;9.772;2022-09-17T03:30:36;99996.56;;;10.24;100.00
6500;BME280;3283;52.330;9.772;2022-09-17T03:33:01;100008.84;;;10.23;100.00
6500;BME280;3283;52.330;9.772;2022-09-17T03:35:27;100001.91;;;10.17;100.00
6500;BME280;3283;52.330;9.772;2022-09-17T03:37:52;100009.84;;;10.16;100.00
6500;BME280;3283;52.330;9.772;2022-09-17T03:40:17;100020.34;;;10.16;100.00
6500;BME280;3283;52.330;9.772;2022-09-17T03:42:44;99989.06;;;10.04;100.00
6500;BME280;3283;52.330;9.772;2022-09-17T03:45:10;100005.63;;;10.07;100.00
6500;BME280;3283;52.330;9.772;2022-09-17T03:47:36;99999.53;;;10.05;100.00
6500;BME280;3283;52.330;9.772;2022-09-17T03:50:03;99994.44;;;9.98;100.00
6500;BME280;3283;52.330;9.772;2022-09-17T03:52:29;100003.03;;;10.06;100.00
6500;BME280;3283;52.330;9.772;2022-09-17T03:54:54;100010.94;;;10.04;100.00
6500;BME280;3283;52.330;9.772;2022-09-17T03:57:19;100018.06;;;10.01;100.00
6500;BME280;3283;52.330;9.772;2022-09-17T03:59:46;100019.81;;;9.99;100.00
6500;BME280;3283;52.330;9.772;2022-09-17T04:02:11;100025.97;;;9.98;100.00
6500;BME280;3283;52.330;9.772;2022-09-17T04:04:37;100034.69;;;10.00;100.00
6500;BME280;3283;52.330;9.772;2022-09-17T04:07:03;100031.25;;;9.98;100.00
6500;BME280;3283;52.330;9.772;2022-09-17T04:09:28;100034.69;;;10.00;100.00
6500;BME280;3283;52.330;9.772;2022-09-17T04:11:54;100026.91;;;9.95;100.00
6500;BME280;3283;52.330;9.772;2022-09-17T04:14:19;100031.31;;;9.95;100.00
6500;BME280;3283;52.330;9.772;2022-09-17T04:16:45;100039.19;;;9.95;100.00
6500;BME280;3283;52.330;9.772;2022-09-17T04:19:10;100039.16;;;9.96;100.00
6500;BME280;3283;52.330;9.772;2022-09-17T04:21:35;100035.72;;;9.93;100.00
6500;BME280;3283;52.330;9.772;2022-09-17T04:24:01;100027.06;;;9.87;100.00
6500;BME280;3283;52.330;9.772;2022-09-17T04:26:26;100040.94;;;9.96;100.00
6500;BME280;3283;52.330;9.772;2022-09-17T04:28:52;100056.59;;;10.02;100.00
6500;BME280;3283;52.330;9.772;2022-09-17T04:31:17;100045.09;;;10.06;100.00
6500;BME280;3283;52.330;9.772;2022-09-17T04:33:42;100037.25;;;10.04;100.00
6500;BME280;3283;52.330;9.772;2022-09-17T04:36:08;100039.72;;;10.12;100.00
6500;BME280;3283;52.330;9.772;2022-09-17T04:38:33;100051.97;;;10.13;100.00
6500;BME280;3283;52.330;9.772;2022-09-17T04:40:59;100054.53;;;10.14;100.00
6500;BME280;3283;52.330;9.772;2022-09-17T04:43:25;100051.06;;;10.14;100.00
6500;BME280;3283;52.330;9.772;2022-09-17T04:45:50;100046.63;;;10.17;100.00
6500;BME280;3283;52.330;9.772;2022-09-17T04:48:16;100054.47;;;10.19;100.00
6500;BME280;3283;52.330;9.772;2022-09-17T04:50:42;100046.56;;;10.19;100.00
6500;BME280;3283;52.330;9.772;2022-09-17T04:53:08;100037.00;;;10.16;100.00
6500;BME280;3283;52.330;9.772;2022-09-17T04:55:33;100055.28;;;10.24;100.00
6500;BME280;3283;52.330;9.772;2022-09-17T04:57:59;100052.56;;;10.27;100.00
6500;BME280;3283;52.330;9.772;2022-09-17T05:00:24;100060.50;;;10.26;100.00
6500;BME280;3283;52.330;9.772;2022-09-17T05:02:52;100059.59;;;10.27;100.00
6500;BME280;3283;52.330;9.772;2022-09-17T05:05:19;100065.72;;;10.27;100.00
6500;BME280;3283;52.330;9.772;2022-09-17T05:07:44;100064.09;;;10.20;100.00
6500;BME280;3283;52.330;9.772;2022-09-17T05:10:11;100063.06;;;10.29;100.00
6500;BME280;3283;52.330;9.772;2022-09-17T05:12:37;100071.75;;;10.32;100.00
6500;BME280;3283;52.330;9.772;2022-09-17T05:15:04;100070.94;;;10.30;100.00
6500;BME280;3283;52.330;9.772;2022-09-17T05:17:29;100073.69;;;10.24;100.00
6500;BME280;3283;52.330;9.772;2022-09-17T05:19:55;100076.19;;;10.30;100.00
6500;BME280;3283;52.330;9.772;2022-09-17T05:22:20;100090.97;;;10.36;100.00
6500;BME280;3283;52.330;9.772;2022-09-17T05:24:46;100078.72;;;10.36;100.00
6500;BME280;3283;52.330;9.772;2022-09-17T05:27:12;100090.09;;;10.35;100.00
6500;BME280;3283;52.330;9.772;2022-09-17T05:29:37;100088.38;;;10.34;100.00
6500;BME280;3283;52.330;9.772;2022-09-17T05:32:04;100083.06;;;10.37;100.00
6500;BME280;3283;52.330;9.772;2022-09-17T05:34:30;100072.63;;;10.33;100.00
6500;BME280;3283;52.330;9.772;2022-09-17T05:36:55;100067.44;;;10.28;100.00
6500;BME280;3283;52.330;9.772;2022-09-17T05:39:21;100081.34;;;10.36;100.00
6500;BME280;3283;52.330;9.772;2022-09-17T05:41:53;100077.94;;;10.31;100.00
6500;BME280;3283;52.330;9.772;2022-09-17T05:44:20;100071.97;;;10.23;100.00
6500;BME280;3283;52.330;9.772;2022-09-17T05:46:46;100070.97;;;10.27;100.00
6500;BME280;3283;52.330;9.772;2022-09-17T05:49:13;100083.09;;;10.34;100.00
6500;BME280;3283;52.330;9.772;2022-09-17T05:51:42;100077.97;;;10.28;100.00
6500;BME280;3283;52.330;9.772;2022-09-17T05:54:08;100092.88;;;10.29;100.00
6500;BME280;3283;52.330;9.772;2022-09-17T05:56:33;100092.91;;;10.26;100.00
6500;BME280;3283;52.330;9.772;2022-09-17T05:58:59;100090.41;;;10.18;100.00
6500;BME280;3283;52.330;9.772;2022-09-17T06:01:25;100097.41;;;10.23;100.00
6500;BME280;3283;52.330;9.772;2022-09-17T06:03:51;100094.66;;;10.27;100.00
6500;BME280;3283;52.330;9.772;2022-09-17T06:06:17;100101.63;;;10.28;100.00
6500;BME280;3283;52.330;9.772;2022-09-17T06:08:43;100100.88;;;10.23;100.00
6500;BME280;3283;52.330;9.772;2022-09-17T06:11:09;100102.63;;;10.24;100.00
6500;BME280;3283;52.330;9.772;2022-09-17T06:13:35;100113.09;;;10.26;100.00
6500;BME280;3283;52.330;9.772;2022-09-17T06:16:01;100095.72;;;10.17;100.00
6500;BME280;3283;52.330;9.772;2022-09-17T06:18:28;100118.28;;;10.29;100.00
6500;BME280;3283;52.330;9.772;2022-09-17T06:20:59;100114.91;;;10.24;100.00
6500;BME280;3283;52.330;9.772;2022-09-17T06:23:25;100115.91;;;10.13;100.00
6500;BME280;3283;52.330;9.772;2022-09-17T06:25:58;100119.31;;;10.20;100.00
6500;BME280;3283;52.330;9.772;2022-09-17T06:28:25;100126.28;;;10.21;100.00
6500;BME280;3283;52.330;9.772;2022-09-17T06:30:51;100126.38;;;10.18;100.00
6500;BME280;3283;52.330;9.772;2022-09-17T06:33:19;100130.75;;;10.17;100.00
6500;BME280;3283;52.330;9.772;2022-09-17T06:35:45;100115.91;;;10.15;100.00
6500;BME280;3283;52.330;9.772;2022-09-17T06:38:10;100124.53;;;10.22;100.00
6500;BME280;3283;52.330;9.772;2022-09-17T06:40:36;100130.81;;;10.14;100.00
6500;BME280;3283;52.330;9.772;2022-09-17T06:43:02;100122.22;;;10.05;100.00
6500;BME280;3283;52.330;9.772;2022-09-17T06:45:28;100128.06;;;10.24;100.00
6500;BME280;3283;52.330;9.772;2022-09-17T06:47:53;100134.84;;;10.34;100.00
6500;BME280;3283;52.330;9.772;2022-09-17T06:50:19;100118.09;;;10.39;100.00
6500;BME280;3283;52.330;9.772;2022-09-17T06:52:52;100117.22;;;10.39;100.00
6500;BME280;3283;52.330;9.772;2022-09-17T06:55:18;100109.41;;;10.34;100.00
6500;BME280;3283;52.330;9.772;2022-09-17T06:57:44;100135.84;;;10.70;100.00
6500;BME280;3283;52.330;9.772;2022-09-17T07:00:11;100128.78;;;10.73;100.00
6500;BME280;3283;52.330;9.772;2022-09-17T07:02:37;100126.09;;;10.75;100.00
6500;BME280;3283;52.330;9.772;2022-09-17T07:05:02;100132.09;;;10.82;100.00
6500;BME280;3283;52.330;9.772;2022-09-17T07:07:28;100136.16;;;10.96;100.00
6500;BME280;3283;52.330;9.772;2022-09-17T07:09:53;100137.72;;;11.07;100.00
6500;BME280;3283;52.330;9.772;2022-09-17T07:12:19;100133.34;;;11.04;100.00
6500;BME280;3283;52.330;9.772;2022-09-17T07:14:45;100134.34;;;10.98;100.00
6500;BME280;3283;52.330;9.772;2022-09-17T07:17:12;100133.63;;;10.92;100.00
6500;BME280;3283;52.330;9.772;2022-09-17T07:19:38;100135.91;;;11.09;100.00
6500;BME280;3283;52.330;9.772;2022-09-17T07:22:04;100122.03;;;11.00;100.00
6500;BME280;3283;52.330;9.772;2022-09-17T07:24:29;100125.38;;;11.09;100.00
6500;BME280;3283;52.330;9.772;2022-09-17T07:26:54;100137.03;;;11.34;100.00
6500;BME280;3283;52.330;9.772;2022-09-17T07:29:20;100113.84;;;11.48;100.00
6500;BME280;3283;52.330;9.772;2022-09-17T07:31:48;100122.66;;;11.47;100.00
6500;BME280;3283;52.330;9.772;2022-09-17T07:34:13;100120.88;;;11.49;100.00
6500;BME280;3283;52.330;9.772;2022-09-17T07:36:39;100125.88;;;11.60;100.00
6500;BME280;3283;52.330;9.772;2022-09-17T07:39:04;100108.22;;;11.64;100.00
6500;BME280;3283;52.330;9.772;2022-09-17T07:41:30;100116.75;;;11.73;100.00
6500;BME280;3283;52.330;9.772;2022-09-17T07:43:56;100124.88;;;11.66;100.00
6500;BME280;3283;52.330;9.772;2022-09-17T07:46:22;100112.13;;;11.47;99.01
6500;BME280;3283;52.330;9.772;2022-09-17T07:48:48;100118.97;;;11.54;100.00
6500;BME280;3283;52.330;9.772;2022-09-17T07:51:17;100116.19;;;11.61;98.92
6500;BME280;3283;52.330;9.772;2022-09-17T07:53:42;100136.19;;;11.69;98.31
6500;BME280;3283;52.330;9.772;2022-09-17T07:56:10;100121.84;;;11.81;98.46
6500;BME280;3283;52.330;9.772;2022-09-17T07:58:35;100120.03;;;11.83;96.96
6500;BME280;3283;52.330;9.772;2022-09-17T08:01:09;100135.81;;;11.86;96.82
6500;BME280;3283;52.330;9.772;2022-09-17T08:03:39;100135.66;;;11.91;97.10
6500;BME280;3283;52.330;9.772;2022-09-17T08:06:07;100135.84;;;12.17;96.77
6500;BME280;3283;52.330;9.772;2022-09-17T08:08:33;100136.47;;;12.27;95.87
6500;BME280;3283;52.330;9.772;2022-09-17T08:11:08;100125.66;;;12.36;94.60
6500;BME280;3283;52.330;9.772;2022-09-17T08:13:33;100115.22;;;12.31;92.97
6500;BME280;3283;52.330;9.772;2022-09-17T08:16:00;100127.09;;;12.15;93.63
6500;BME280;3283;52.330;9.772;2022-09-17T08:18:26;100120.53;;;12.30;93.36
6500;BME280;3283;52.330;9.772;2022-09-17T08:20:55;100132.22;;;12.21;93.58
6500;BME280;3283;52.330;9.772;2022-09-17T08:23:21;100132.06;;;12.27;93.49
6500;BME280;3283;52.330;9.772;2022-09-17T08:25:58;100124.91;;;12.31;91.99
6500;BME280;3283;52.330;9.772;2022-09-17T08:28:25;100130.06;;;12.35;91.18
6500;BME280;3283;52.330;9.772;2022-09-17T08:30:52;100115.75;;;12.44;91.23
6500;BME280;3283;52.330;9.772;2022-09-17T08:33:18;100120.91;;;12.49;91.80
6500;BME280;3283;52.330;9.772;2022-09-17T08:35:54;100118.09;;;12.53;91.05
6500;BME280;3283;52.330;9.772;2022-09-17T08:38:27;100115.69;;;12.77;90.54
6500;BME280;3283;52.330;9.772;2022-09-17T08:41:27;100118.44;;;12.72;89.23
6500;BME280;3283;52.330;9.772;2022-09-17T08:46:32;100113.06;;;13.05;88.69
6500;BME280;3283;52.330;9.772;2022-09-17T08:49:04;100117.91;;;13.18;87.81
6500;BME280;3283;52.330;9.772;2022-09-17T08:56:36;100126.72;;;13.17;86.77
6500;BME280;3283;52.330;9.772;2022-09-17T09:06:33;100113.94;;;13.33;85.51
6500;BME280;3283;52.330;9.772;2022-09-17T09:09:08;100121.84;;;13.86;85.05
6500;BME280;3283;52.330;9.772;2022-09-17T09:11:36;100111.47;;;14.30;83.12
6500;BME280;3283;52.330;9.772;2022-09-17T09:16:50;100122.06;;;13.80;81.22
6500;BME280;3283;52.330;9.772;2022-09-17T09:19:31;100126.47;;;13.55;81.66
6500;BME280;3283;52.330;9.772;2022-09-17T09:24:41;100108.75;;;13.83;80.12
6500;BME280;3283;52.330;9.772;2022-09-17T09:27:16;100109.44;;;13.88;80.49
6500;BME280;3283;52.330;9.772;2022-09-17T09:35:29;100086.13;;;13.99;77.68
6500;BME280;3283;52.330;9.772;2022-09-17T09:40:49;100099.94;;;13.83;77.37
6500;BME280;3283;52.330;9.772;2022-09-17T09:48:40;100107.88;;;14.33;74.35
6500;BME280;3283;52.330;9.772;2022-09-17T09:51:15;100096.28;;;14.60;73.75
6500;BME280;3283;52.330;9.772;2022-09-17T09:54:12;100106.69;;;14.88;72.66
6500;BME280;3283;52.330;9.772;2022-09-17T09:59:17;100112.63;;;14.48;74.31
6500;BME280;3283;52.330;9.772;2022-09-17T10:01:43;100093.50;;;14.63;72.76
6500;BME280;3283;52.330;9.772;2022-09-17T10:04:21;100101.56;;;14.83;71.02
6500;BME280;3283;52.330;9.772;2022-09-17T10:07:07;100105.66;;;14.69;71.55
6500;BME280;3283;52.330;9.772;2022-09-17T10:09:35;100101.56;;;14.83;71.07
6500;BME280;3283;52.330;9.772;2022-09-17T10:14:31;100082.00;;;14.88;70.16
6500;BME280;3283;52.330;9.772;2022-09-17T10:19:42;100104.69;;;14.48;68.44
6500;BME280;3283;52.330;9.772;2022-09-17T10:22:44;100099.03;;;14.57;68.26
6500;BME280;3283;52.330;9.772;2022-09-17T10:27:46;100095.00;;;14.70;68.87
6500;BME280;3283;52.330;9.772;2022-09-17T10:30:15;100104.97;;;14.87;68.35
6500;BME280;3283;52.330;9.772;2022-09-17T10:32:41;100101.28;;;14.68;66.76
6500;BME280;3283;52.330;9.772;2022-09-17T10:37:47;100096.78;;;14.70;66.74
6500;BME280;3283;52.330;9.772;2022-09-17T10:42:49;100103.19;;;15.31;67.01
6500;BME280;3283;52.330;9.772;2022-09-17T10:45:29;100092.44;;;15.34;65.90
6500;BME280;3283;52.330;9.772;2022-09-17T10:47:55;100081.09;;;15.53;64.77
6500;BME280;3283;52.330;9.772;2022-09-17T10:50:30;100110.97;;;15.78;64.68
6500;BME280;3283;52.330;9.772;2022-09-17T10:53:01;100109.41;;;15.74;63.67
6500;BME280;3283;52.330;9.772;2022-09-17T10:55:32;100095.94;;;15.57;62.65
6500;BME280;3283;52.330;9.772;2022-09-17T11:03:58;100098.88;;;15.73;62.47
6500;BME280;3283;52.330;9.772;2022-09-17T11:12:43;100086.13;;;15.81;63.42
6500;BME280;3283;52.330;9.772;2022-09-17T11:15:39;100075.97;;;15.48;64.58
6500;BME280;3283;52.330;9.772;2022-09-17T11:26:47;100077.72;;;15.27;63.50
6500;BME280;3283;52.330;9.772;2022-09-17T11:30:02;100073.75;;;14.95;61.70
6500;BME280;3283;52.330;9.772;2022-09-17T11:37:54;100093.16;;;14.72;63.06
6500;BME280;3283;52.330;9.772;2022-09-17T11:40:43;100088.66;;;14.51;63.73
6500;BME280;3283;52.330;9.772;2022-09-17T11:43:25;100084.94;;;14.56;63.93
6500;BME280;3283;52.330;9.772;2022-09-17T11:46:12;100083.78;;;14.64;63.94
6500;BME280;3283;52.330;9.772;2022-09-17T11:49:19;100082.19;;;14.60;64.37
6500;BME280;3283;52.330;9.772;2022-09-17T11:51:46;100075.66;;;14.68;65.26
6500;BME280;3283;52.330;9.772;2022-09-17T11:54:28;100080.00;;;14.47;66.13
6500;BME280;3283;52.330;9.772;2022-09-17T11:57:10;100073.94;;;14.67;66.48
6500;BME280;3283;52.330;9.772;2022-09-17T12:02:36;100081.66;;;14.73;67.37
6500;BME280;3283;52.330;9.772;2022-09-17T12:05:26;100086.13;;;14.71;67.02
6500;BME280;3283;52.330;9.772;2022-09-17T12:08:17;100082.00;;;14.88;65.97
6500;BME280;3283;52.330;9.772;2022-09-17T12:13:48;100082.63;;;14.94;65.35
6500;BME280;3283;52.330;9.772;2022-09-17T12:16:25;100087.38;;;14.84;65.96
6500;BME280;3283;52.330;9.772;2022-09-17T12:18:58;100079.13;;;14.70;66.46
6500;BME280;3283;52.330;9.772;2022-09-17T12:21:32;100087.41;;;14.38;67.19
6500;BME280;3283;52.330;9.772;2022-09-17T12:24:06;100065.31;;;14.14;68.15
6500;BME280;3283;52.330;9.772;2022-09-17T12:48:51;100083.03;;;13.62;84.88
6500;BME280;3283;52.330;9.772;2022-09-17T12:57:12;100130.69;;;10.67;100.00
6500;BME280;3283;52.330;9.772;2022-09-17T12:59:52;100113.13;;;10.24;100.00
6500;BME280;3283;52.330;9.772;2022-09-17T13:05:26;100118.78;;;10.03;100.00
6500;BME280;3283;52.330;9.772;2022-09-17T13:16:24;100091.00;;;10.34;100.00
6500;BME280;3283;52.330;9.772;2022-09-17T13:18:59;100076.69;;;10.48;100.00
6500;BME280;3283;52.330;9.772;2022-09-17T13:21:50;100087.53;;;10.74;100.00
6500;BME280;3283;52.330;9.772;2022-09-17T13:24:21;100080.25;;;10.85;100.00
6500;BME280;3283;52.330;9.772;2022-09-17T13:26:51;100078.47;;;10.87;100.00
6500;BME280;3283;52.330;9.772;2022-09-17T13:29:58;100081.81;;;10.94;100.00
6500;BME280;3283;52.330;9.772;2022-09-17T13:37:43;100075.47;;;11.03;100.00
6500;BME280;3283;52.330;9.772;2022-09-17T13:40:36;100078.03;;;11.06;100.00
6500;BME280;3283;52.330;9.772;2022-09-17T13:45:47;100090.47;;;10.99;100.00
6500;BME280;3283;52.330;9.772;2022-09-17T13:48:27;100110.22;;;10.78;100.00
6500;BME280;3283;52.330;9.772;2022-09-17T13:50:53;100084.53;;;10.51;100.00
6500;BME280;3283;52.330;9.772;2022-09-17T13:53:28;100074.34;;;9.89;100.00
6500;BME280;3283;52.330;9.772;2022-09-17T13:55:56;100057.38;;;9.59;100.00
6500;BME280;3283;52.330;9.772;2022-09-17T13:58:32;100077.25;;;9.72;100.00
6500;BME280;3283;52.330;9.772;2022-09-17T14:03:50;100079.75;;;9.81;100.00
6500;BME280;3283;52.330;9.772;2022-09-17T14:13:46;100067.00;;;9.60;100.00
6500;BME280;3283;52.330;9.772;2022-09-17T14:24:23;100050.78;;;9.84;100.00
6500;BME280;3283;52.330;9.772;2022-09-17T14:32:07;100041.28;;;10.22;100.00
6500;BME280;3283;52.330;9.772;2022-09-17T14:34:36;100036.75;;;10.30;100.00
6500;BME280;3283;52.330;9.772;2022-09-17T14:37:02;100047.84;;;10.44;100.00
6500;BME280;3283;52.330;9.772;2022-09-17T14:39:36;100049.72;;;10.38;100.00
6500;BME280;3283;52.330;9.772;2022-09-17T14:42:04;100029.59;;;10.37;100.00
6500;BME280;3283;52.330;9.772;2022-09-17T14:44:35;100049.28;;;10.59;100.00
6500;BME280;3283;52.330;9.772;2022-09-17T14:47:02;100048.22;;;10.66;100.00
6500;BME280;3283;52.330;9.772;2022-09-17T14:49:33;100044.66;;;10.69;100.00
6500;BME280;3283;52.330;9.772;2022-09-17T14:51:59;100034.00;;;10.75;100.00
6500;BME280;3283;52.330;9.772;2022-09-17T14:54:32;100040.88;;;10.81;100.00
6500;BME280;3283;52.330;9.772;2022-09-17T14:57:09;100048.50;;;10.91;100.00
6500;BME280;3283;52.330;9.772;2022-09-17T15:05:00;100046.78;;;10.90;100.00
6500;BME280;3283;52.330;9.772;2022-09-17T15:07:28;100034.66;;;10.83;100.00
6500;BME280;3283;52.330;9.772;2022-09-17T15:10:05;100021.59;;;10.80;100.00
6500;BME280;3283;52.330;9.772;2022-09-17T15:12:31;100030.94;;;10.93;100.00
6500;BME280;3283;52.330;9.772;2022-09-17T15:14:57;100034.47;;;10.92;100.00
6500;BME280;3283;52.330;9.772;2022-09-17T15:17:22;100020.47;;;10.90;100.00
6500;BME280;3283;52.330;9.772;2022-09-17T15:19:50;100017.78;;;10.93;100.00
6500;BME280;3283;52.330;9.772;2022-09-17T15:22:32;100030.22;;;10.87;100.00
6500;BME280;3283;52.330;9.772;2022-09-17T15:27:38;100019.75;;;10.84;100.00
6500;BME280;3283;52.330;9.772;2022-09-17T15:30:10;100028.59;;;10.81;100.00
6500;BME280;3283;52.330;9.772;2022-09-17T15:32:38;100027.91;;;10.73;100.00
6500;BME280;3283;52.330;9.772;2022-09-17T15:37:49;100033.59;;;10.53;100.00
6500;BME280;3283;52.330;9.772;2022-09-17T15:42:56;100034.25;;;10.63;100.00
6500;BME280;3283;52.330;9.772;2022-09-17T15:45:30;100037.69;;;10.66;100.00
6500;BME280;3283;52.330;9.772;2022-09-17T15:47:59;100049.88;;;10.72;100.00
6500;BME280;3283;52.330;9.772;2022-09-17T15:51:14;100061.22;;;10.74;100.00
6500;BME280;3283;52.330;9.772;2022-09-17T15:53:23;100055.94;;;10.74;100.00
6500;BME280;3283;52.330;9.772;2022-09-17T16:08:56;100057.78;;;10.30;100.00
6500;BME280;3283;52.330;9.772;2022-09-17T16:11:30;100052.56;;;10.27;100.00
6500;BME280;3283;52.330;9.772;2022-09-17T16:13:58;100044.97;;;10.12;100.00
6500;BME280;3283;52.330;9.772;2022-09-17T16:16:31;100067.69;;;10.16;100.00
6500;BME280;3283;52.330;9.772;2022-09-17T16:18:57;100058.94;;;10.15;100.00
6500;BME280;3283;52.330;9.772;2022-09-17T16:21:23;100053.69;;;10.14;100.00
6500;BME280;3283;52.330;9.772;2022-09-17T16:23:49;100057.28;;;10.10;100.00
6500;BME280;3283;52.330;9.772;2022-09-17T16:26:17;100053.84;;;10.08;100.00
6500;BME280;3283;52.330;9.772;2022-09-17T16:28:47;100047.09;;;9.95;100.00
6500;BME280;3283;52.330;9.772;2022-09-17T16:31:14;100056.63;;;9.99;100.00
6500;BME280;3283;52.330;9.772;2022-09-17T16:33:40;100073.38;;;9.93;100.00
6500;BME280;3283;52.330;9.772;2022-09-17T16:36:06;100041.38;;;9.71;100.00
6500;BME280;3283;52.330;9.772;2022-09-17T16:38:32;100065.75;;;9.79;100.00
6500;BME280;3283;52.330;9.772;2022-09-17T16:40:58;100073.69;;;9.76;100.00
6500;BME280;3283;52.330;9.772;2022-09-17T16:43:23;100067.63;;;9.74;100.00
6500;BME280;3283;52.330;9.772;2022-09-17T16:48:23;100065.03;;;9.71;100.00
6500;BME280;3283;52.330;9.772;2022-09-17T16:50:49;100058.16;;;9.64;100.00
6500;BME280;3283;52.330;9.772;2022-09-17T16:53:17;100065.06;;;9.70;100.00
6500;BME280;3283;52.330;9.772;2022-09-17T16:55:43;100059.09;;;9.61;100.00
6500;BME280;3283;52.330;9.772;2022-09-17T16:58:09;100070.38;;;9.65;100.00